Time;durP1;ratioP1;P1;durP2;ratioP2;P2;SDS_P1;SDS_P2;PMS_P1;PMS_P2;Temp;Humidity;BMP_temperature;BMP_pressure;BME280_temperature;BME280_humidity;BME280_pressure;Samples;Min_cycle;Max_cycle;Signal;HPM_P1;HPM_P2
2022/01/14 00:01:11;;;;;;;50.47;20.00;;;;;;;;;;5038450;28;20202;-63
2022/01/14 00:03:37;;;;;;;69.50;20.93;;;;;;;;;;5039358;28;20183;-63
2022/01/14 00:06:03;;;;;;;48.00;22.53;;;;;;;;;;5039212;28;20195;-63
2022/01/14 00:08:29;;;;;;;60.57;19.63;;;;;;;;;;5038639;28;20504;-62
2022/01/14 00:10:57;;;;;;;49.30;21.03;;;;;;;;;;5038946;28;20934;-63
2022/01/14 00:16:12;;;;;;;55.23;17.90;;;;;;;;;;5029005;28;20484;-63
2022/01/14 00:18:38;;;;;;;58.80;18.97;;;;;;;;;;5039247;28;20434;-64
2022/01/14 00:21:04;;;;;;;53.30;19.53;;;;;;;;;;5037442;28;20203;-63
2022/01/14 00:23:35;;;;;;;57.20;18.83;;;;;;;;;;5038236;28;20746;-64
2022/01/14 00:31:49;;;;;;;58.10;19.77;;;;;;;;;;5038703;28;20432;-63
2022/01/14 00:34:16;;;;;;;74.17;20.20;;;;;;;;;;5040013;28;20156;-64
2022/01/14 00:36:42;;;;;;;62.20;19.70;;;;;;;;;;5037623;28;20910;-63
2022/01/14 00:39:10;;;;;;;56.67;19.30;;;;;;;;;;5037948;28;20611;-62
2022/01/14 00:41:36;;;;;;;49.47;19.30;;;;;;;;;;5041047;28;20434;-62
2022/01/14 00:44:05;;;;;;;63.87;20.20;;;;;;;;;;5042137;28;20191;-62
2022/01/14 00:46:31;;;;;;;64.80;17.87;;;;;;;;;;5043371;28;20436;-63
2022/01/14 00:48:57;;;;;;;55.40;19.80;;;;;;;;;;5042735;28;20524;-64
2022/01/14 00:51:23;;;;;;;57.93;20.90;;;;;;;;;;5043953;28;20191;-63
2022/01/14 00:53:49;;;;;;;51.57;20.13;;;;;;;;;;5041507;28;20187;-63
2022/01/14 00:57:13;;;;;;;67.07;19.13;;;;;;;;;;5041780;28;20669;-63
2022/01/14 00:59:14;;;;;;;56.83;20.00;;;;;;;;;;5039175;28;20259;-64
2022/01/14 01:01:40;;;;;;;69.13;19.50;;;;;;;;;;5043456;28;20202;-63
2022/01/14 01:04:06;;;;;;;71.70;19.87;;;;;;;;;;5043117;28;20635;-63
2022/01/14 01:06:32;;;;;;;55.17;18.57;;;;;;;;;;5043565;28;20417;-63
2022/01/14 01:08:58;;;;;;;40.60;18.53;;;;;;;;;;5042859;28;20606;-64
2022/01/14 01:11:29;;;;;;;43.70;18.33;;;;;;;;;;5040434;28;20453;-64
2022/01/14 01:14:04;;;;;;;44.17;19.03;;;;;;;;;;5043136;28;20155;-63
2022/01/14 01:16:30;;;;;;;77.47;21.50;;;;;;;;;;5042713;28;20814;-63
2022/01/14 01:18:57;;;;;;;55.43;21.13;;;;;;;;;;5041303;28;20421;-63
2022/01/14 01:21:23;;;;;;;57.70;21.37;;;;;;;;;;5042435;28;20206;-62
2022/01/14 01:23:49;;;;;;;52.10;22.40;;;;;;;;;;5041353;28;20724;-63
2022/01/14 01:26:28;;;;;;;82.30;23.23;;;;;;;;;;5042143;28;20232;-63
2022/01/14 01:29:02;;;;;;;59.30;24.03;;;;;;;;;;5042770;28;20953;-62
2022/01/14 01:31:41;;;;;;;78.70;27.43;;;;;;;;;;5040850;28;20525;-63
2022/01/14 01:34:07;;;;;;;67.33;23.73;;;;;;;;;;5042311;28;20151;-63
2022/01/14 01:36:33;;;;;;;80.57;24.80;;;;;;;;;;5042322;28;20421;-61
2022/01/14 01:38:59;;;;;;;63.90;23.67;;;;;;;;;;5042945;28;20262;-63
2022/01/14 01:41:25;;;;;;;63.80;24.23;;;;;;;;;;5042594;28;20509;-64
2022/01/14 01:43:53;;;;;;;68.33;25.90;;;;;;;;;;5042211;28;20436;-62
2022/01/14 01:46:20;;;;;;;60.77;26.20;;;;;;;;;;5040852;28;20436;-64
2022/01/14 01:48:47;;;;;;;62.93;26.30;;;;;;;;;;5041013;28;20207;-63
2022/01/14 01:51:13;;;;;;;71.87;24.40;;;;;;;;;;5041519;28;20697;-64
2022/01/14 01:53:39;;;;;;;98.03;26.40;;;;;;;;;;5040541;28;20418;-63
2022/01/14 01:56:05;;;;;;;56.03;25.70;;;;;;;;;;5042244;28;20171;-63
2022/01/14 01:58:31;;;;;;;49.37;24.73;;;;;;;;;;5040132;28;20207;-63
2022/01/14 02:00:57;;;;;;;69.47;27.33;;;;;;;;;;5041818;28;20434;-64
2022/01/14 02:03:23;;;;;;;66.10;26.57;;;;;;;;;;5040726;28;20190;-63
2022/01/14 02:05:50;;;;;;;61.87;26.33;;;;;;;;;;5040002;28;20215;-63
2022/01/14 02:08:16;;;;;;;70.10;28.33;;;;;;;;;;5040634;28;20737;-62
2022/01/14 02:10:42;;;;;;;57.63;25.37;;;;;;;;;;5038339;28;20410;-63
2022/01/14 02:13:10;;;;;;;66.03;27.93;;;;;;;;;;5041665;28;20249;-64
2022/01/14 02:15:48;;;;;;;72.73;27.80;;;;;;;;;;5040049;28;20717;-64
2022/01/14 02:23:53;;;;;;;69.83;26.40;;;;;;;;;;5042039;28;20397;-63
2022/01/14 02:26:19;;;;;;;97.40;27.47;;;;;;;;;;5039889;28;20487;-64
2022/01/14 02:28:49;;;;;;;61.37;28.57;;;;;;;;;;5039712;28;20206;-63
2022/01/14 02:31:16;;;;;;;74.93;30.13;;;;;;;;;;5041320;28;20437;-63
2022/01/14 02:33:42;;;;;;;70.07;27.70;;;;;;;;;;5041808;28;20414;-64
2022/01/14 02:36:08;;;;;;;79.90;28.27;;;;;;;;;;5041642;28;20547;-64
2022/01/14 02:38:34;;;;;;;82.43;28.13;;;;;;;;;;5040342;28;20183;-62
2022/01/14 02:41:00;;;;;;;63.20;27.30;;;;;;;;;;5041517;28;20434;-62
2022/01/14 02:43:26;;;;;;;81.30;27.60;;;;;;;;;;5041534;28;20190;-63
2022/01/14 02:45:56;;;;;;;101.77;31.07;;;;;;;;;;5039763;28;20187;-63
2022/01/14 02:48:26;;;;;;;103.97;27.53;;;;;;;;;;5041370;28;20254;-66
2022/01/14 02:50:57;;;;;;;115.77;27.43;;;;;;;;;;5041814;28;20521;-64
2022/01/14 02:53:28;;;;;;;83.87;27.67;;;;;;;;;;5039993;28;20410;-63
2022/01/14 02:55:55;;;;;;;73.27;24.07;;;;;;;;;;5040071;28;20241;-64
2022/01/14 02:58:21;;;;;;;67.17;25.47;;;;;;;;;;5041297;28;20410;-64
2022/01/14 03:00:48;;;;;;;113.93;26.27;;;;;;;;;;5041249;28;20202;-64
2022/01/14 03:03:17;;;;;;;64.00;26.20;;;;;;;;;;5041349;28;20254;-64
2022/01/14 03:05:43;;;;;;;74.13;27.50;;;;;;;;;;5039657;28;20453;-63
2022/01/14 03:08:09;;;;;;;83.53;26.40;;;;;;;;;;5041101;28;20453;-64
2022/01/14 03:10:35;;;;;;;75.40;26.13;;;;;;;;;;5040808;28;20183;-62
2022/01/14 03:13:01;;;;;;;72.37;25.43;;;;;;;;;;5039645;28;20646;-65
2022/01/14 03:15:27;;;;;;;73.63;25.33;;;;;;;;;;5039144;28;20268;-63
2022/01/14 03:17:53;;;;;;;70.30;25.60;;;;;;;;;;5039891;28;20183;-62
2022/01/14 03:23:05;;;;;;;70.17;24.30;;;;;;;;;;5040824;28;20175;-62
2022/01/14 03:25:51;;;;;;;91.13;25.07;;;;;;;;;;5038912;28;20567;-63
2022/01/14 03:28:23;;;;;;;88.73;26.70;;;;;;;;;;5038803;28;20457;-64
2022/01/14 03:30:51;;;;;;;61.43;25.23;;;;;;;;;;5040231;28;20202;-64
2022/01/14 03:33:17;;;;;;;79.87;27.77;;;;;;;;;;5040219;28;20178;-64
2022/01/14 03:35:43;;;;;;;58.43;24.53;;;;;;;;;;5040560;28;20179;-63
2022/01/14 03:38:09;;;;;;;65.33;22.77;;;;;;;;;;5039961;28;20183;-63
2022/01/14 03:40:35;;;;;;;57.87;25.10;;;;;;;;;;5040042;28;20801;-64
2022/01/14 03:43:01;;;;;;;64.57;23.80;;;;;;;;;;5040159;28;20433;-64
2022/01/14 03:45:27;;;;;;;63.23;22.87;;;;;;;;;;5039834;28;20179;-63
2022/01/14 03:47:53;;;;;;;61.53;24.50;;;;;;;;;;5038900;28;21057;-62
2022/01/14 03:50:19;;;;;;;55.30;25.00;;;;;;;;;;5039752;28;20179;-64
2022/01/14 03:52:45;;;;;;;58.87;23.57;;;;;;;;;;5040241;28;20201;-64
2022/01/14 03:55:11;;;;;;;67.43;24.40;;;;;;;;;;5038716;28;20193;-63
2022/01/14 03:57:37;;;;;;;64.77;23.37;;;;;;;;;;5040463;28;20179;-63
2022/01/14 04:00:03;;;;;;;98.73;26.10;;;;;;;;;;5040491;28;20755;-64
2022/01/14 04:02:29;;;;;;;55.83;24.77;;;;;;;;;;5039084;28;20313;-64
2022/01/14 04:04:55;;;;;;;62.50;24.43;;;;;;;;;;5040150;28;20199;-63
2022/01/14 04:07:21;;;;;;;59.57;25.10;;;;;;;;;;5040222;28;20182;-62
2022/01/14 04:09:47;;;;;;;69.57;27.50;;;;;;;;;;5038840;28;20671;-64
2022/01/14 04:12:19;;;;;;;55.23;23.70;;;;;;;;;;5038812;28;20210;-69
2022/01/14 04:17:12;;;;;;;69.47;25.57;;;;;;;;;;5043152;28;20420;-63
2022/01/14 04:19:38;;;;;;;70.50;26.00;;;;;;;;;;5043739;28;20646;-63
2022/01/14 04:22:05;;;;;;;72.80;25.90;;;;;;;;;;5043868;28;20464;-67
2022/01/14 04:24:31;;;;;;;65.43;22.70;;;;;;;;;;5043117;28;20183;-63
2022/01/14 04:26:57;;;;;;;63.00;22.70;;;;;;;;;;5044035;28;20182;-63
2022/01/14 04:29:23;;;;;;;47.80;21.77;;;;;;;;;;5043457;28;20230;-64
2022/01/14 04:31:48;;;;;;;57.30;23.57;;;;;;;;;;5041250;28;20191;-63
2022/01/14 04:34:16;;;;;;;46.87;22.27;;;;;;;;;;5041883;28;20175;-64
2022/01/14 04:36:42;;;;;;;42.53;21.13;;;;;;;;;;5041549;28;20213;-64
2022/01/14 04:39:08;;;;;;;51.17;22.73;;;;;;;;;;5043509;28;20513;-63
2022/01/14 04:41:34;;;;;;;55.07;22.73;;;;;;;;;;5042162;28;20469;-64
2022/01/14 04:44:01;;;;;;;48.27;22.10;;;;;;;;;;5040545;28;20183;-63
2022/01/14 04:48:53;;;;;;;51.47;21.63;;;;;;;;;;5042636;28;20478;-63
2022/01/14 04:51:22;;;;;;;54.63;21.07;;;;;;;;;;5043036;28;20203;-65
2022/01/14 04:53:48;;;;;;;55.03;22.13;;;;;;;;;;5043230;28;20182;-63
2022/01/14 04:56:15;;;;;;;63.13;22.67;;;;;;;;;;5043027;28;20179;-64
2022/01/14 04:58:41;;;;;;;51.10;22.53;;;;;;;;;;5042673;28;20651;-64
2022/01/14 05:01:07;;;;;;;44.77;22.87;;;;;;;;;;5041066;28;20949;-64
2022/01/14 05:03:33;;;;;;;50.10;21.87;;;;;;;;;;5042355;28;20497;-63
2022/01/14 05:06:01;;;;;;;45.43;21.97;;;;;;;;;;5042667;28;20421;-63
2022/01/14 05:08:35;;;;;;;49.63;22.37;;;;;;;;;;5041178;28;20461;-68
2022/01/14 05:11:22;;;;;;;45.40;22.17;;;;;;;;;;5042276;28;20464;-64
2022/01/14 05:13:48;;;;;;;47.90;20.73;;;;;;;;;;5042515;28;20187;-64
2022/01/14 05:16:14;;;;;;;52.13;22.37;;;;;;;;;;5041112;28;20410;-63
2022/01/14 05:18:40;;;;;;;44.33;22.43;;;;;;;;;;5042219;28;20972;-63
2022/01/14 05:21:06;;;;;;;40.23;20.53;;;;;;;;;;5040872;28;20679;-62
2022/01/14 05:23:32;;;;;;;46.13;21.33;;;;;;;;;;5041432;28;20421;-64
2022/01/14 05:25:58;;;;;;;48.80;22.17;;;;;;;;;;5041843;28;20179;-62
2022/01/14 05:28:24;;;;;;;59.33;23.77;;;;;;;;;;5041572;28;20249;-63
2022/01/14 05:30:50;;;;;;;60.63;22.63;;;;;;;;;;5042261;28;20199;-68
2022/01/14 05:35:46;;;;;;;61.07;19.97;;;;;;;;;;5038327;28;20223;-63
2022/01/14 05:38:12;;;;;;;71.00;24.87;;;;;;;;;;5037696;28;20600;-63
2022/01/14 05:40:38;;;;;;;74.23;22.27;;;;;;;;;;5036299;28;20190;-63
2022/01/14 05:43:04;;;;;;;51.03;19.90;;;;;;;;;;5034755;28;20183;-63
2022/01/14 05:45:30;;;;;;;69.43;19.87;;;;;;;;;;5034602;28;20214;-62
2022/01/14 05:47:56;;;;;;;56.97;19.23;;;;;;;;;;5034726;28;20187;-63
2022/01/14 05:50:23;;;;;;;77.53;19.00;;;;;;;;;;5035714;28;20597;-63
2022/01/14 05:52:49;;;;;;;58.03;18.53;;;;;;;;;;5035940;28;20179;-63
2022/01/14 05:55:16;;;;;;;42.30;19.60;;;;;;;;;;5035827;28;20465;-62
2022/01/14 05:57:42;;;;;;;37.03;19.63;;;;;;;;;;5036279;28;20241;-63
2022/01/14 06:00:10;;;;;;;34.83;19.33;;;;;;;;;;5034634;28;20472;-63
2022/01/14 06:02:36;;;;;;;39.50;19.73;;;;;;;;;;5035683;28;20542;-62
2022/01/14 06:05:02;;;;;;;49.43;20.60;;;;;;;;;;5034524;28;20874;-63
2022/01/14 06:07:28;;;;;;;49.17;20.87;;;;;;;;;;5035480;28;20183;-63
2022/01/14 06:09:54;;;;;;;44.07;20.80;;;;;;;;;;5036236;28;20461;-63
2022/01/14 06:12:20;;;;;;;49.50;20.00;;;;;;;;;;5035621;28;20601;-63
2022/01/14 06:14:46;;;;;;;50.43;21.03;;;;;;;;;;5034367;28;20191;-63
2022/01/14 06:17:12;;;;;;;49.87;22.23;;;;;;;;;;5034560;28;20198;-63
2022/01/14 06:19:38;;;;;;;46.13;21.20;;;;;;;;;;5035915;28;20209;-63
2022/01/14 06:22:04;;;;;;;47.83;21.10;;;;;;;;;;5034704;28;20198;-63
2022/01/14 06:24:30;;;;;;;45.97;22.17;;;;;;;;;;5035536;28;20749;-64
2022/01/14 06:26:56;;;;;;;43.17;21.93;;;;;;;;;;5035549;28;20414;-63
2022/01/14 06:29:22;;;;;;;48.17;22.37;;;;;;;;;;5036142;28;20679;-63
2022/01/14 06:31:48;;;;;;;50.40;23.17;;;;;;;;;;5049769;28;20229;-63
2022/01/14 06:34:17;;;;;;;51.33;23.03;;;;;;;;;;5045286;28;20634;-63
2022/01/14 06:36:43;;;;;;;52.83;22.90;;;;;;;;;;5046360;28;20421;-63
2022/01/14 06:39:09;;;;;;;55.20;23.03;;;;;;;;;;5042876;28;20675;-63
2022/01/14 06:41:35;;;;;;;49.83;22.50;;;;;;;;;;5037602;28;20472;-62
2022/01/14 06:44:01;;;;;;;68.33;21.83;;;;;;;;;;5038622;28;20203;-63
2022/01/14 06:46:27;;;;;;;74.47;23.63;;;;;;;;;;5037670;28;20190;-62
2022/01/14 06:48:53;;;;;;;57.40;21.50;;;;;;;;;;5036822;28;20466;-63
2022/01/14 06:51:19;;;;;;;50.33;20.23;;;;;;;;;;5036268;28;20179;-63
2022/01/14 06:53:45;;;;;;;45.40;20.43;;;;;;;;;;5035884;28;20685;-63
2022/01/14 06:56:13;;;;;;;73.87;28.90;;;;;;;;;;5042511;28;20646;-63
2022/01/14 06:58:39;;;;;;;74.47;22.27;;;;;;;;;;5048934;28;20406;-62
2022/01/14 07:01:05;;;;;;;44.63;21.00;;;;;;;;;;5049295;28;20417;-63
2022/01/14 07:03:31;;;;;;;62.83;24.10;;;;;;;;;;5050848;28;20179;-64
2022/01/14 07:05:57;;;;;;;58.33;25.20;;;;;;;;;;5051000;28;20421;-63
2022/01/14 07:08:23;;;;;;;63.77;23.13;;;;;;;;;;5043999;28;20473;-63
2022/01/14 07:10:49;;;;;;;75.13;25.47;;;;;;;;;;5038582;28;20202;-63
2022/01/14 07:13:15;;;;;;;96.57;38.43;;;;;;;;;;5035587;28;20179;-63
2022/01/14 07:15:41;;;;;;;105.13;35.80;;;;;;;;;;5035669;28;20472;-63
2022/01/14 07:18:09;;;;;;;124.70;43.13;;;;;;;;;;5035685;28;20205;-63
2022/01/14 07:20:35;;;;;;;83.37;35.13;;;;;;;;;;5035192;28;20210;-63
2022/01/14 07:23:01;;;;;;;44.53;20.20;;;;;;;;;;5033962;28;20426;-63
2022/01/14 07:25:27;;;;;;;47.93;25.87;;;;;;;;;;5033629;28;20203;-63
2022/01/14 07:27:53;;;;;;;52.60;28.00;;;;;;;;;;5033275;28;20639;-63
2022/01/14 07:30:19;;;;;;;43.43;22.63;;;;;;;;;;5034392;28;20491;-62
2022/01/14 07:32:45;;;;;;;58.73;25.93;;;;;;;;;;5033253;28;20410;-63
2022/01/14 07:35:11;;;;;;;65.83;27.57;;;;;;;;;;5034183;28;20268;-63
2022/01/14 07:37:37;;;;;;;74.17;26.43;;;;;;;;;;5034585;28;21001;-62
2022/01/14 07:40:05;;;;;;;74.80;35.57;;;;;;;;;;5035003;28;20410;-63
2022/01/14 07:42:30;;;;;;;57.10;25.60;;;;;;;;;;5046372;28;20620;-64
2022/01/14 07:44:56;;;;;;;48.00;23.47;;;;;;;;;;5047561;28;20438;-63
2022/01/14 07:47:23;;;;;;;62.60;26.90;;;;;;;;;;5036150;28;20225;-62
2022/01/14 07:49:50;;;;;;;46.63;20.50;;;;;;;;;;5034858;28;20247;-63
2022/01/14 07:52:16;;;;;;;57.93;22.93;;;;;;;;;;5033339;28;20410;-63
2022/01/14 07:54:42;;;;;;;52.13;21.43;;;;;;;;;;5034749;28;20456;-63
2022/01/14 07:57:08;;;;;;;69.80;22.13;;;;;;;;;;5034599;28;20225;-63
2022/01/14 07:59:36;;;;;;;59.47;20.70;;;;;;;;;;5032963;28;20183;-61
2022/01/14 08:02:02;;;;;;;64.07;24.80;;;;;;;;;;5034318;28;20616;-63
2022/01/14 08:04:32;;;;;;;55.57;25.47;;;;;;;;;;5033851;28;20945;-62
2022/01/14 08:07:08;;;;;;;53.97;23.23;;;;;;;;;;5035260;28;20414;-63
2022/01/14 08:09:34;;;;;;;46.27;23.67;;;;;;;;;;5034075;28;20449;-63
2022/01/14 08:12:00;;;;;;;55.57;22.37;;;;;;;;;;5032541;28;20476;-63
2022/01/14 08:14:26;;;;;;;54.13;22.77;;;;;;;;;;5033869;28;20202;-63
2022/01/14 08:16:51;;;;;;;57.47;21.37;;;;;;;;;;5032542;28;20298;-63
2022/01/14 08:19:17;;;;;;;54.67;21.60;;;;;;;;;;5033425;28;20206;-63
2022/01/14 08:21:43;;;;;;;56.97;22.83;;;;;;;;;;5032076;28;20183;-63
2022/01/14 08:24:09;;;;;;;48.97;22.30;;;;;;;;;;5032329;28;20253;-63
2022/01/14 08:26:35;;;;;;;49.83;24.13;;;;;;;;;;5033632;28;20191;-62
2022/01/14 08:29:01;;;;;;;60.70;24.00;;;;;;;;;;5033441;28;20238;-63
2022/01/14 08:31:27;;;;;;;55.00;23.83;;;;;;;;;;5032756;28;20422;-62
2022/01/14 08:33:53;;;;;;;50.13;23.03;;;;;;;;;;5032841;28;20298;-63
2022/01/14 08:36:20;;;;;;;73.00;24.53;;;;;;;;;;5033078;28;20680;-63
2022/01/14 08:38:46;;;;;;;78.23;26.30;;;;;;;;;;5033475;28;20222;-63
2022/01/14 08:41:12;;;;;;;77.87;27.40;;;;;;;;;;5034162;28;20409;-63
2022/01/14 08:43:38;;;;;;;55.33;27.07;;;;;;;;;;5034573;28;20203;-62
2022/01/14 08:46:04;;;;;;;62.47;28.00;;;;;;;;;;5033564;28;20561;-62
2022/01/14 08:48:30;;;;;;;66.53;27.90;;;;;;;;;;5034220;28;20202;-63
2022/01/14 08:50:57;;;;;;;65.87;29.07;;;;;;;;;;5035445;28;20179;-63
2022/01/14 08:53:23;;;;;;;77.07;31.60;;;;;;;;;;5036615;28;20413;-63
2022/01/14 08:55:49;;;;;;;63.50;30.63;;;;;;;;;;5037244;28;20425;-64
2022/01/14 08:58:15;;;;;;;81.80;28.90;;;;;;;;;;5036038;28;20418;-63
2022/01/14 09:00:41;;;;;;;67.37;29.97;;;;;;;;;;5037038;28;20501;-63
2022/01/14 09:03:07;;;;;;;82.30;29.43;;;;;;;;;;5038885;28;20179;-63
2022/01/14 09:05:33;;;;;;;61.00;27.90;;;;;;;;;;5039975;28;20804;-63
2022/01/14 09:07:59;;;;;;;59.50;28.00;;;;;;;;;;5039768;28;20425;-63
2022/01/14 09:10:26;;;;;;;63.47;26.77;;;;;;;;;;5039819;28;20209;-63
2022/01/14 09:12:52;;;;;;;74.03;28.07;;;;;;;;;;5038406;28;20422;-64
2022/01/14 09:15:18;;;;;;;61.90;25.60;;;;;;;;;;5041464;28;20509;-63
2022/01/14 09:17:44;;;;;;;71.07;26.93;;;;;;;;;;5038629;28;20183;-62
2022/01/14 09:20:10;;;;;;;64.17;27.50;;;;;;;;;;5039958;28;20410;-63
2022/01/14 09:22:37;;;;;;;82.53;27.27;;;;;;;;;;5037517;28;20949;-64
2022/01/14 09:25:04;;;;;;;67.73;25.73;;;;;;;;;;5037460;28;21001;-63
2022/01/14 09:27:30;;;;;;;53.87;25.03;;;;;;;;;;5039661;28;20440;-63
2022/01/14 09:29:58;;;;;;;62.07;25.80;;;;;;;;;;5040184;28;20488;-62
2022/01/14 09:32:25;;;;;;;72.67;28.37;;;;;;;;;;5039350;28;20468;-63
2022/01/14 09:34:51;;;;;;;67.37;33.63;;;;;;;;;;5040121;28;20453;-61
2022/01/14 09:37:17;;;;;;;69.00;32.80;;;;;;;;;;5040005;28;20418;-61
2022/01/14 09:39:43;;;;;;;75.93;28.40;;;;;;;;;;5038168;28;20826;-62
2022/01/14 09:42:18;;;;;;;59.23;25.77;;;;;;;;;;5038849;28;20215;-60
2022/01/14 09:44:44;;;;;;;75.43;33.43;;;;;;;;;;5041822;28;20442;-61
2022/01/14 09:47:16;;;;;;;56.93;25.83;;;;;;;;;;5047795;28;20186;-61
2022/01/14 09:49:42;;;;;;;87.17;29.20;;;;;;;;;;5045170;28;20453;-61
2022/01/14 09:52:08;;;;;;;69.60;29.80;;;;;;;;;;5045791;28;20420;-61
2022/01/14 09:54:34;;;;;;;66.30;26.93;;;;;;;;;;5040923;28;20195;-61
2022/01/14 09:57:00;;;;;;;71.73;27.90;;;;;;;;;;5040756;28;20270;-64
2022/01/14 09:59:26;;;;;;;77.13;28.23;;;;;;;;;;5045458;28;20242;-63
2022/01/14 10:01:52;;;;;;;66.87;30.00;;;;;;;;;;5044060;28;20191;-62
2022/01/14 10:04:19;;;;;;;72.80;25.53;;;;;;;;;;5045652;28;20434;-61
2022/01/14 10:06:45;;;;;;;90.80;29.73;;;;;;;;;;5043384;28;20420;-61
2022/01/14 10:09:13;;;;;;;77.53;28.80;;;;;;;;;;5045874;28;20203;-61
2022/01/14 10:11:40;;;;;;;86.00;27.67;;;;;;;;;;5041939;28;20591;-61
2022/01/14 10:14:12;;;;;;;69.67;25.10;;;;;;;;;;5037250;28;20434;-62
2022/01/14 10:16:41;;;;;;;59.37;25.23;;;;;;;;;;5038070;28;20422;-61
2022/01/14 10:19:17;;;;;;;53.90;26.07;;;;;;;;;;5038187;28;20406;-62
2022/01/14 10:21:42;;;;;;;76.83;27.63;;;;;;;;;;5037897;28;20174;-61
2022/01/14 10:24:11;;;;;;;65.53;27.57;;;;;;;;;;5037649;28;20195;-61
2022/01/14 10:26:56;;;;;;;51.80;26.13;;;;;;;;;;5038540;28;20172;-60
2022/01/14 10:29:30;;;;;;;60.53;28.23;;;;;;;;;;5037512;28;20195;-61
2022/01/14 10:31:56;;;;;;;50.53;27.33;;;;;;;;;;5037391;28;20205;-60
2022/01/14 10:34:22;;;;;;;49.63;24.50;;;;;;;;;;5034436;28;20219;-61
2022/01/14 10:36:50;;;;;;;62.90;27.07;;;;;;;;;;5035578;28;20179;-63
2022/01/14 10:39:19;;;;;;;50.17;23.93;;;;;;;;;;5036969;28;20418;-61
2022/01/14 10:41:45;;;;;;;64.37;26.93;;;;;;;;;;5044227;28;20222;-61
2022/01/14 10:44:27;;;;;;;60.27;32.33;;;;;;;;;;5055707;28;20213;-62
2022/01/14 10:47:12;;;;;;;47.17;24.20;;;;;;;;;;5041149;28;20695;-60
2022/01/14 10:49:38;;;;;;;50.03;22.37;;;;;;;;;;5036343;28;20207;-61
2022/01/14 10:52:12;;;;;;;44.03;22.03;;;;;;;;;;5036558;28;20678;-61
2022/01/14 10:54:39;;;;;;;49.40;21.90;;;;;;;;;;5036436;28;20195;-61
2022/01/14 10:57:32;;;;;;;68.43;23.80;;;;;;;;;;5034748;28;20258;-61
2022/01/14 11:00:14;;;;;;;57.67;27.50;;;;;;;;;;5032807;28;20225;-61
2022/01/14 11:02:45;;;;;;;61.23;29.33;;;;;;;;;;5036542;28;20167;-61
2022/01/14 11:05:15;;;;;;;47.67;25.43;;;;;;;;;;5033495;28;20678;-62
2022/01/14 11:07:42;;;;;;;60.93;28.63;;;;;;;;;;5033760;28;20179;-61
2022/01/14 11:10:25;;;;;;;55.20;26.63;;;;;;;;;;5035309;28;20281;-61
2022/01/14 11:12:56;;;;;;;51.47;23.70;;;;;;;;;;5034133;28;20187;-62
2022/01/14 11:15:23;;;;;;;50.50;24.07;;;;;;;;;;5034363;28;20213;-61
2022/01/14 11:17:52;;;;;;;42.60;21.73;;;;;;;;;;5035299;28;20182;-61
2022/01/14 11:20:26;;;;;;;50.37;24.30;;;;;;;;;;5034624;28;20274;-61
2022/01/14 11:25:38;;;;;;;59.00;28.07;;;;;;;;;;5036372;28;20213;-61
2022/01/14 11:28:05;;;;;;;47.63;22.77;;;;;;;;;;5035407;28;20179;-61
2022/01/14 11:30:32;;;;;;;53.00;26.40;;;;;;;;;;5035726;28;20697;-61
2022/01/14 11:33:02;;;;;;;47.23;24.60;;;;;;;;;;5034893;28;20178;-62
2022/01/14 11:35:28;;;;;;;74.60;33.53;;;;;;;;;;5035086;28;20207;-61
2022/01/14 11:37:54;;;;;;;65.47;36.57;;;;;;;;;;5034274;28;20647;-61
2022/01/14 11:40:20;;;;;;;54.30;27.00;;;;;;;;;;5032929;28;20597;-61
2022/01/14 11:42:47;;;;;;;63.97;34.10;;;;;;;;;;5034087;28;20233;-62
2022/01/14 11:45:15;;;;;;;58.80;27.27;;;;;;;;;;5034234;28;20199;-61
2022/01/14 11:47:46;;;;;;;60.67;33.37;;;;;;;;;;5034221;28;20174;-61
2022/01/14 11:50:24;;;;;;;55.00;29.50;;;;;;;;;;5033906;28;20673;-61
2022/01/14 11:52:50;;;;;;;53.03;29.20;;;;;;;;;;5032580;28;20198;-61
2022/01/14 11:55:22;;;;;;;76.57;46.10;;;;;;;;;;5033552;28;20667;-61
2022/01/14 11:57:51;;;;;;;62.60;32.30;;;;;;;;;;5032509;28;20189;-61
2022/01/14 12:02:54;;;;;;;97.73;56.27;;;;;;;;;;5034192;28;20631;-62
2022/01/14 12:05:21;;;;;;;50.93;26.13;;;;;;;;;;5033655;28;20679;-61
2022/01/14 12:08:02;;;;;;;48.83;26.30;;;;;;;;;;5051737;23;20245;-66
2022/01/14 12:10:29;;;;;;;54.40;27.93;;;;;;;;;;5033706;28;20597;-68
2022/01/14 12:13:15;;;;;;;47.53;25.50;;;;;;;;;;5033427;28;20199;-67
2022/01/14 12:15:47;;;;;;;57.57;28.23;;;;;;;;;;5048450;28;20188;-67
2022/01/14 12:18:13;;;;;;;47.97;24.67;;;;;;;;;;5033278;28;20605;-66
2022/01/14 12:20:49;;;;;;;50.03;25.53;;;;;;;;;;5033176;28;20179;-66
2022/01/14 12:23:18;;;;;;;43.93;23.37;;;;;;;;;;5032973;28;20183;-67
2022/01/14 12:25:45;;;;;;;51.20;27.30;;;;;;;;;;5033267;28;20207;-67
2022/01/14 12:28:17;;;;;;;54.47;26.20;;;;;;;;;;5032999;28;20203;-67
2022/01/14 12:30:56;;;;;;;49.03;26.90;;;;;;;;;;5033012;28;20179;-67
2022/01/14 12:33:42;;;;;;;46.07;24.63;;;;;;;;;;5033841;28;20171;-67
2022/01/14 12:36:15;;;;;;;47.03;23.43;;;;;;;;;;5032710;28;20171;-66
2022/01/14 12:38:42;;;;;;;48.93;27.83;;;;;;;;;;5035378;28;20207;-66
2022/01/14 12:41:21;;;;;;;52.17;28.30;;;;;;;;;;5036745;28;20190;-66
2022/01/14 12:43:50;;;;;;;51.20;27.13;;;;;;;;;;5036606;28;20178;-66
2022/01/14 12:46:45;;;;;;;47.70;25.47;;;;;;;;;;5036712;28;20199;-66
2022/01/14 12:49:15;;;;;;;47.80;25.67;;;;;;;;;;5036698;28;20210;-66
2022/01/14 12:51:41;;;;;;;52.97;27.70;;;;;;;;;;5036471;28;20176;-68
2022/01/14 12:54:11;;;;;;;52.87;26.87;;;;;;;;;;5036627;28;20237;-67
2022/01/14 12:56:39;;;;;;;55.47;27.47;;;;;;;;;;5036432;28;20202;-66
2022/01/14 12:59:10;;;;;;;59.07;27.90;;;;;;;;;;5036464;28;20181;-66
2022/01/14 13:01:44;;;;;;;48.60;26.10;;;;;;;;;;5036252;28;20258;-66
2022/01/14 13:04:11;;;;;;;51.13;25.53;;;;;;;;;;5034924;28;20175;-66
2022/01/14 13:06:48;;;;;;;49.90;26.63;;;;;;;;;;5035986;28;20598;-65
2022/01/14 13:09:18;;;;;;;56.00;27.97;;;;;;;;;;5035994;28;20194;-68
2022/01/14 13:11:47;;;;;;;57.93;28.47;;;;;;;;;;5034760;28;20171;-66
2022/01/14 13:14:19;;;;;;;64.97;33.17;;;;;;;;;;5036051;28;20556;-66
2022/01/14 13:16:49;;;;;;;67.37;34.87;;;;;;;;;;5036211;28;20197;-66
2022/01/14 13:19:27;;;;;;;87.60;38.90;;;;;;;;;;5034522;28;20643;-66
2022/01/14 13:21:53;;;;;;;75.73;37.37;;;;;;;;;;5035715;28;20175;-66
2022/01/14 13:24:24;;;;;;;60.37;31.43;;;;;;;;;;5034399;28;20184;-66
2022/01/14 13:27:04;;;;;;;100.30;47.53;;;;;;;;;;5034395;28;20209;-66
2022/01/14 13:29:43;;;;;;;62.87;33.13;;;;;;;;;;5035627;28;20542;-66
2022/01/14 13:32:11;;;;;;;106.73;53.57;;;;;;;;;;5036126;28;20179;-66
2022/01/14 13:34:37;;;;;;;80.03;43.93;;;;;;;;;;5034365;28;20277;-66
2022/01/14 13:37:03;;;;;;;77.23;38.60;;;;;;;;;;5035436;28;20202;-66
2022/01/14 13:39:29;;;;;;;91.70;46.60;;;;;;;;;;5035463;28;20187;-66
2022/01/14 13:41:55;;;;;;;97.27;49.23;;;;;;;;;;5035897;28;20179;-66
2022/01/14 13:44:25;;;;;;;80.60;40.63;;;;;;;;;;5035300;28;20730;-66
2022/01/14 13:46:56;;;;;;;61.57;33.77;;;;;;;;;;5034759;28;20286;-66
2022/01/14 13:49:22;;;;;;;78.17;41.30;;;;;;;;;;5035438;28;20241;-65
2022/01/14 13:52:10;;;;;;;89.27;46.30;;;;;;;;;;5035915;28;20171;-66
2022/01/14 13:54:36;;;;;;;77.17;39.93;;;;;;;;;;5034023;28;20270;-66
2022/01/14 13:57:16;;;;;;;87.60;45.10;;;;;;;;;;5035284;28;20285;-66
2022/01/14 13:59:42;;;;;;;89.63;49.80;;;;;;;;;;5035131;28;20605;-65
2022/01/14 14:02:10;;;;;;;111.80;47.87;;;;;;;;;;5035039;28;20183;-66
2022/01/14 14:04:44;;;;;;;86.70;42.33;;;;;;;;;;5035639;28;20189;-66
2022/01/14 14:07:12;;;;;;;140.90;71.83;;;;;;;;;;5033523;28;20222;-66
2022/01/14 14:17:35;;;;;;;98.60;45.97;;;;;;;;;;5035146;28;20210;-66
2022/01/14 14:20:01;;;;;;;86.37;39.47;;;;;;;;;;5033567;28;20182;-67
2022/01/14 14:22:32;;;;;;;76.20;38.73;;;;;;;;;;5033463;28;20631;-67
2022/01/14 14:25:08;;;;;;;104.57;47.70;;;;;;;;;;5033377;28;20182;-66
2022/01/14 14:27:34;;;;;;;87.57;40.40;;;;;;;;;;5034586;28;20198;-66
2022/01/14 14:30:04;;;;;;;89.27;42.73;;;;;;;;;;5034508;28;20281;-66
2022/01/14 14:32:34;;;;;;;126.47;67.73;;;;;;;;;;5033185;28;20179;-67
2022/01/14 14:35:02;;;;;;;95.90;42.20;;;;;;;;;;5034808;28;20155;-67
2022/01/14 14:37:29;;;;;;;100.87;46.77;;;;;;;;;;5034215;28;20197;-66
2022/01/14 14:39:55;;;;;;;92.70;45.87;;;;;;;;;;5032926;28;20183;-66
2022/01/14 14:42:22;;;;;;;110.83;52.30;;;;;;;;;;5033047;28;20187;-66
2022/01/14 14:44:48;;;;;;;88.90;42.87;;;;;;;;;;5033066;28;20183;-66
2022/01/14 14:47:14;;;;;;;96.47;48.37;;;;;;;;;;5034133;28;20588;-66
2022/01/14 14:49:40;;;;;;;98.50;45.27;;;;;;;;;;5034739;28;20225;-66
2022/01/14 14:52:06;;;;;;;97.87;42.77;;;;;;;;;;5034339;28;20175;-66
2022/01/14 14:54:32;;;;;;;86.80;43.00;;;;;;;;;;5033099;28;20706;-66
2022/01/14 14:56:58;;;;;;;108.57;51.00;;;;;;;;;;5033074;28;20199;-66
2022/01/14 14:59:24;;;;;;;93.87;45.43;;;;;;;;;;5032073;28;20321;-66